Mc Ghee Tyson Airport
KTYS : rendu visible

Aérodrome :











RETROUVEZ-NOUS SUR...

 
LOGIN :

S'inscrire | Disclaimer

   EN    FR    IT 

 









Légende :    VFR   VFR Marginal   IFR   IFR Intensif   IFR Très Intensif
Visi : 
Plafond : 
>= 8 km
>= 3000ft
5 à 8 km
1000 à 3000 ft
1500m à 5 km
500 à 1000 ft
800 à 1500m
200 à 500 ft
< 800m
< 200 ft
Symboles :   Orages  Brouillard  Fortes neiges  Fortes précipitations  Vent > 20 kt






- Altitude de l'aérodrome : 981 ft
- Code IATA : TYS


KTYS - Mc Ghee Tyson

DERNIER METAR :
  • 010453Z 32005KT 10SM BKN022 BKN028 OVC070 07/03 A2986 RMK AO2 SLP110 T00720028 401330072 $

METARs EXPIRÉS :
  • 010353Z 34003KT 10SM BKN019 OVC025 08/05 A2986 RMK AO2 SLP110 T00780050 $
  • 010253Z 34004KT 10SM FEW020 BKN026 OVC031 07/04 A2985 RMK AO2 SLP109 60000 T00720044 51013 $
  • 010249Z 35003KT 10SM FEW020 BKN026 OVC075 07/04 A2985 RMK AO2 $

TAF KTYS
Valide du 01 à 06h jusqu'au 02 à 06h UTC


010524Z 0106/0206 33007KT P6SM BKN025
TEMPO 0106/0110 BKN015
FM011600 35008KT P6SM BKN035
FM020200 01004KT P6SM SCT040



MET'MAP, la Météo Aéronautique d'un coup d'oeil ! - Copyright ORBIFLY Décembre 2007 - Disclaimer

ORBIFLY MET'MAP TEAM :

Programmation & Développement : Alexandra Zaïnal
Sur une idée originale de : Baudouin d'Aumeries
Assistance à la programmation : Marc-Olivier Méhu
Soutien technique & logistique : Manuel Goepfert

Contact : metmap@orbifly.com




SOURCES & CREDITS :

   NOAA       Earth
Advisory